METAR AND TAF INFORMATION

METAR FOR MUCL
ADDS - METARS form results

(0721 UTC 24 July 2021)
Data provider http://aviationweather.gov/metar/data/
 
METAR text: MUCL 240705Z AUTO 08004KT 29/26 Q1015
Conditions at: MUCL (CAYO LARGO D SUR, CU) observed 0705 UTC 24 July 2021
Temperature: 29.0°C (84°F)
Dewpoint: 26.0°C (79°F) [RH = 84%]
Pressure (altimeter): 29.97 inches Hg (1015.0 mb)
Winds: from the E (80 degrees) at 5 MPH (4 knots; 2.1 m/s)
Visibility: missing
Ceiling: unknown
Clouds: missing
Weather: no significant weather observed at this time

 

AIRPORT MAP

 

RUNWAY INFORMATION

Runway 12 Runway length 9869 ft Runway width 148 ft
Runway elevation 7 ft Runway displaced threshold 0 ft Runway heading 116
Runway 30 Runway length 9869 ft Runway width 148 ft
Runway elevation 10 ft Runway displaced threshold 0 ft Runway heading 296

 

AIRPORT FREQUENCIES

Type A/G Name CAYO LARGO Frequency 340.7 MHZ
Type APP Name CAYO LARGO Frequency 120.1 MHZ
Type TWR Name CAYO LARGO Frequency 118.5 MHZ

 

AIRPORT NEAR NAVIGATION AIDS

Type VOR-DME Name Cayo Largo Del Sur Frequency 112100 KHZ
Type NDB Name Cayo Largo Del Sur Frequency 230 KHZ